TimeCEST,TemperatureF,Dew PointF,Humidity,Sea Level PressureIn,VisibilityMPH,Wind Direction,Wind SpeedMPH,Gust SpeedMPH,PrecipitationIn,Events,Conditions,WindDirDegrees,DateUTC
12:50 AM,64.4,59.0,83,30.12,-9999.0,NE,16.1,-,N/A,,Clear,50,2012-10-18 22:50:00
1:50 AM,64.4,59.0,83,30.12,-9999.0,NE,15.0,-,N/A,,Clear,50,2012-10-18 23:50:00
2:50 AM,64.4,57.2,77,30.12,-9999.0,NE,13.8,-,N/A,,Clear,50,2012-10-19 00:50:00
3:50 AM,62.6,55.4,77,30.12,-9999.0,NE,11.5,-,N/A,,Clear,50,2012-10-19 01:50:00
4:50 AM,64.4,55.4,73,30.12,-9999.0,NE,16.1,-,N/A,,Clear,50,2012-10-19 02:50:00
5:50 AM,64.4,53.6,68,30.12,-9999.0,NE,17.3,-,N/A,,Clear,50,2012-10-19 03:50:00
6:50 AM,64.4,53.6,68,30.12,-9999.0,NE,18.4,-,N/A,,Clear,50,2012-10-19 04:50:00
7:50 AM,62.6,51.8,68,30.12,-9999.0,NE,16.1,-,N/A,,Clear,50,2012-10-19 05:50:00
8:50 AM,66.2,55.4,68,30.15,-9999.0,NE,16.1,-,N/A,,Clear,50,2012-10-19 06:50:00
9:50 AM,69.8,59.0,68,30.15,-9999.0,ENE,19.6,-,N/A,,Clear,70,2012-10-19 07:50:00
10:50 AM,71.6,59.0,64,30.15,-9999.0,East,19.6,-,N/A,,Clear,80,2012-10-19 08:50:00
11:50 AM,73.4,60.8,65,30.15,-9999.0,East,16.1,-,N/A,,Clear,80,2012-10-19 09:50:00
12:50 PM,75.2,59.0,57,30.12,-9999.0,ENE,16.1,-,N/A,,Clear,70,2012-10-19 10:50:00
2:50 PM,78.8,59.0,51,30.09,-9999.0,East,13.8,-,N/A,,Clear,80,2012-10-19 12:50:00
3:50 PM,77.0,57.2,50,30.09,-9999.0,East,15.0,-,N/A,,Clear,80,2012-10-19 13:50:00
4:50 PM,75.2,57.2,53,30.09,-9999.0,ENE,15.0,-,N/A,,Clear,70,2012-10-19 14:50:00
5:50 PM,71.6,57.2,60,30.09,-9999.0,ENE,17.3,-,N/A,,Clear,60,2012-10-19 15:50:00
6:50 PM,68.0,59.0,73,30.09,-9999.0,NE,12.7,-,N/A,,Clear,50,2012-10-19 16:50:00
7:50 PM,68.0,60.8,78,30.12,-9999.0,NE,13.8,-,N/A,,Clear,50,2012-10-19 17:50:00
8:50 PM,66.2,59.0,78,30.12,-9999.0,NE,11.5,-,N/A,,Clear,50,2012-10-19 18:50:00
9:50 PM,66.2,59.0,78,30.12,-9999.0,ENE,11.5,-,N/A,,Clear,60,2012-10-19 19:50:00
10:50 PM,64.4,59.0,83,30.12,-9999.0,NE,10.4,-,N/A,,Clear,50,2012-10-19 20:50:00
11:50 PM,62.6,57.2,82,30.12,-9999.0,East,6.9,-,N/A,,Clear,90,2012-10-19 21:50:00